sensor_id;sensor_type;location;lat;lon;timestamp;P1;durP1;ratioP1;P2;durP2;ratioP2
35434;SDS011;21556;55.782;37.528;2024-03-02T00:00:20;41.75;;;27.17;;
35434;SDS011;21556;55.782;37.528;2024-03-02T00:02:50;43.50;;;26.27;;
35434;SDS011;21556;55.782;37.528;2024-03-02T00:05:17;43.13;;;27.33;;
35434;SDS011;21556;55.782;37.528;2024-03-02T00:07:45;31.33;;;19.15;;
35434;SDS011;21556;55.782;37.528;2024-03-02T00:10:20;39.08;;;24.67;;
35434;SDS011;21556;55.782;37.528;2024-03-02T00:12:57;47.78;;;27.40;;
35434;SDS011;21556;55.782;37.528;2024-03-02T00:17:56;40.75;;;25.02;;
35434;SDS011;21556;55.782;37.528;2024-03-02T00:20:24;37.17;;;25.30;;
35434;SDS011;21556;55.782;37.528;2024-03-02T00:22:55;43.28;;;25.48;;
35434;SDS011;21556;55.782;37.528;2024-03-02T00:25:39;40.70;;;25.17;;
35434;SDS011;21556;55.782;37.528;2024-03-02T00:28:12;45.35;;;26.65;;
35434;SDS011;21556;55.782;37.528;2024-03-02T00:30:50;41.00;;;25.90;;
35434;SDS011;21556;55.782;37.528;2024-03-02T00:33:22;42.20;;;25.98;;
35434;SDS011;21556;55.782;37.528;2024-03-02T00:35:49;43.03;;;26.00;;
35434;SDS011;21556;55.782;37.528;2024-03-02T00:38:20;44.13;;;25.75;;
35434;SDS011;21556;55.782;37.528;2024-03-02T00:40:46;39.58;;;25.63;;
35434;SDS011;21556;55.782;37.528;2024-03-02T00:46:13;43.33;;;26.98;;
35434;SDS011;21556;55.782;37.528;2024-03-02T00:48:45;36.40;;;25.52;;
35434;SDS011;21556;55.782;37.528;2024-03-02T00:51:19;48.97;;;25.80;;
35434;SDS011;21556;55.782;37.528;2024-03-02T00:53:46;38.20;;;24.90;;
35434;SDS011;21556;55.782;37.528;2024-03-02T00:56:13;45.33;;;27.77;;
35434;SDS011;21556;55.782;37.528;2024-03-02T00:58:40;46.53;;;26.33;;
35434;SDS011;21556;55.782;37.528;2024-03-02T01:01:06;46.25;;;26.98;;
35434;SDS011;21556;55.782;37.528;2024-03-02T01:03:33;44.20;;;27.23;;
35434;SDS011;21556;55.782;37.528;2024-03-02T01:06:00;46.55;;;26.15;;
35434;SDS011;21556;55.782;37.528;2024-03-02T01:08:26;45.30;;;26.92;;
35434;SDS011;21556;55.782;37.528;2024-03-02T01:10:52;40.20;;;25.65;;
35434;SDS011;21556;55.782;37.528;2024-03-02T01:13:18;46.75;;;26.83;;
35434;SDS011;21556;55.782;37.528;2024-03-02T01:15:46;42.97;;;26.42;;
35434;SDS011;21556;55.782;37.528;2024-03-02T01:18:12;41.72;;;27.17;;
35434;SDS011;21556;55.782;37.528;2024-03-02T01:20:38;45.40;;;26.88;;
35434;SDS011;21556;55.782;37.528;2024-03-02T01:23:04;46.45;;;26.58;;
35434;SDS011;21556;55.782;37.528;2024-03-02T01:25:30;47.03;;;25.75;;
35434;SDS011;21556;55.782;37.528;2024-03-02T01:27:56;42.17;;;24.55;;
35434;SDS011;21556;55.782;37.528;2024-03-02T01:30:23;42.47;;;26.17;;
35434;SDS011;21556;55.782;37.528;2024-03-02T01:32:49;40.08;;;24.65;;
35434;SDS011;21556;55.782;37.528;2024-03-02T01:35:15;38.40;;;24.33;;
35434;SDS011;21556;55.782;37.528;2024-03-02T01:37:41;38.72;;;24.60;;
35434;SDS011;21556;55.782;37.528;2024-03-02T01:40:07;38.63;;;24.55;;
35434;SDS011;21556;55.782;37.528;2024-03-02T01:42:35;40.30;;;25.35;;
35434;SDS011;21556;55.782;37.528;2024-03-02T01:45:03;38.47;;;25.53;;
35434;SDS011;21556;55.782;37.528;2024-03-02T01:47:32;41.38;;;25.48;;
35434;SDS011;21556;55.782;37.528;2024-03-02T01:49:59;44.28;;;25.58;;
35434;SDS011;21556;55.782;37.528;2024-03-02T01:52:26;39.45;;;24.05;;
35434;SDS011;21556;55.782;37.528;2024-03-02T01:54:52;37.90;;;24.30;;
35434;SDS011;21556;55.782;37.528;2024-03-02T01:57:18;51.22;;;26.58;;
35434;SDS011;21556;55.782;37.528;2024-03-02T01:59:45;40.20;;;24.58;;
35434;SDS011;21556;55.782;37.528;2024-03-02T02:02:14;41.40;;;22.90;;
35434;SDS011;21556;55.782;37.528;2024-03-02T02:04:41;36.42;;;22.45;;
35434;SDS011;21556;55.782;37.528;2024-03-02T02:07:07;36.00;;;22.13;;
35434;SDS011;21556;55.782;37.528;2024-03-02T02:09:33;32.47;;;22.95;;
35434;SDS011;21556;55.782;37.528;2024-03-02T02:12:01;33.95;;;21.75;;
35434;SDS011;21556;55.782;37.528;2024-03-02T02:14:31;38.60;;;23.55;;
35434;SDS011;21556;55.782;37.528;2024-03-02T02:16:57;38.40;;;23.10;;
35434;SDS011;21556;55.782;37.528;2024-03-02T02:19:24;34.78;;;23.30;;
35434;SDS011;21556;55.782;37.528;2024-03-02T02:21:50;38.58;;;24.30;;
35434;SDS011;21556;55.782;37.528;2024-03-02T02:24:18;39.92;;;23.48;;
35434;SDS011;21556;55.782;37.528;2024-03-02T02:26:47;38.67;;;23.88;;
35434;SDS011;21556;55.782;37.528;2024-03-02T02:31:39;39.63;;;23.55;;
35434;SDS011;21556;55.782;37.528;2024-03-02T02:34:06;36.23;;;22.73;;
35434;SDS011;21556;55.782;37.528;2024-03-02T02:36:34;38.83;;;23.02;;
35434;SDS011;21556;55.782;37.528;2024-03-02T02:39:04;41.47;;;21.95;;
35434;SDS011;21556;55.782;37.528;2024-03-02T02:41:32;34.28;;;22.52;;
35434;SDS011;21556;55.782;37.528;2024-03-02T02:43:58;35.15;;;22.15;;
35434;SDS011;21556;55.782;37.528;2024-03-02T02:46:24;39.35;;;22.48;;
35434;SDS011;21556;55.782;37.528;2024-03-02T02:48:50;37.05;;;23.17;;
35434;SDS011;21556;55.782;37.528;2024-03-02T02:51:18;38.20;;;24.10;;
35434;SDS011;21556;55.782;37.528;2024-03-02T02:53:44;40.97;;;23.83;;
35434;SDS011;21556;55.782;37.528;2024-03-02T02:56:11;40.05;;;24.92;;
35434;SDS011;21556;55.782;37.528;2024-03-02T02:58:36;43.33;;;25.08;;
35434;SDS011;21556;55.782;37.528;2024-03-02T03:01:03;45.40;;;26.75;;
35434;SDS011;21556;55.782;37.528;2024-03-02T03:03:29;47.55;;;27.60;;
35434;SDS011;21556;55.782;37.528;2024-03-02T03:05:55;41.40;;;26.35;;
35434;SDS011;21556;55.782;37.528;2024-03-02T03:08:21;44.03;;;26.58;;
35434;SDS011;21556;55.782;37.528;2024-03-02T03:10:49;54.42;;;29.15;;
35434;SDS011;21556;55.782;37.528;2024-03-02T03:13:15;49.15;;;29.08;;
35434;SDS011;21556;55.782;37.528;2024-03-02T03:15:41;51.45;;;28.08;;
35434;SDS011;21556;55.782;37.528;2024-03-02T03:18:07;53.60;;;27.77;;
35434;SDS011;21556;55.782;37.528;2024-03-02T03:20:33;47.88;;;28.15;;
35434;SDS011;21556;55.782;37.528;2024-03-02T03:23:01;44.42;;;28.20;;
35434;SDS011;21556;55.782;37.528;2024-03-02T03:25:29;49.45;;;29.85;;
35434;SDS011;21556;55.782;37.528;2024-03-02T03:27:56;48.97;;;29.10;;
35434;SDS011;21556;55.782;37.528;2024-03-02T03:30:22;51.30;;;28.55;;
35434;SDS011;21556;55.782;37.528;2024-03-02T03:32:48;44.85;;;26.67;;
35434;SDS011;21556;55.782;37.528;2024-03-02T03:35:15;45.72;;;28.55;;
35434;SDS011;21556;55.782;37.528;2024-03-02T03:37:41;47.35;;;29.65;;
35434;SDS011;21556;55.782;37.528;2024-03-02T03:40:10;56.83;;;29.00;;
35434;SDS011;21556;55.782;37.528;2024-03-02T03:42:37;46.35;;;28.20;;
35434;SDS011;21556;55.782;37.528;2024-03-02T03:45:07;45.83;;;29.48;;
35434;SDS011;21556;55.782;37.528;2024-03-02T03:47:33;46.10;;;28.30;;
35434;SDS011;21556;55.782;37.528;2024-03-02T03:50:00;45.65;;;28.80;;
35434;SDS011;21556;55.782;37.528;2024-03-02T03:52:26;49.90;;;28.73;;
35434;SDS011;21556;55.782;37.528;2024-03-02T03:54:52;53.00;;;29.25;;
35434;SDS011;21556;55.782;37.528;2024-03-02T03:57:18;54.53;;;30.48;;
35434;SDS011;21556;55.782;37.528;2024-03-02T03:59:46;46.03;;;28.40;;
35434;SDS011;21556;55.782;37.528;2024-03-02T04:04:38;43.92;;;28.08;;
35434;SDS011;21556;55.782;37.528;2024-03-02T04:07:07;48.47;;;28.98;;
35434;SDS011;21556;55.782;37.528;2024-03-02T04:09:33;48.22;;;28.27;;
35434;SDS011;21556;55.782;37.528;2024-03-02T04:12:00;45.95;;;28.98;;
35434;SDS011;21556;55.782;37.528;2024-03-02T04:14:27;47.00;;;29.58;;
35434;SDS011;21556;55.782;37.528;2024-03-02T04:16:53;50.22;;;28.75;;
35434;SDS011;21556;55.782;37.528;2024-03-02T04:19:18;51.13;;;30.15;;
35434;SDS011;21556;55.782;37.528;2024-03-02T04:21:44;49.08;;;30.90;;
35434;SDS011;21556;55.782;37.528;2024-03-02T04:24:11;53.28;;;29.95;;
35434;SDS011;21556;55.782;37.528;2024-03-02T04:26:37;54.13;;;31.80;;
35434;SDS011;21556;55.782;37.528;2024-03-02T04:29:03;51.00;;;29.65;;
35434;SDS011;21556;55.782;37.528;2024-03-02T04:31:29;52.65;;;29.88;;
35434;SDS011;21556;55.782;37.528;2024-03-02T04:33:55;49.75;;;29.65;;
35434;SDS011;21556;55.782;37.528;2024-03-02T04:36:21;47.88;;;30.85;;
35434;SDS011;21556;55.782;37.528;2024-03-02T04:38:49;47.50;;;29.70;;
35434;SDS011;21556;55.782;37.528;2024-03-02T04:41:15;48.95;;;31.55;;
35434;SDS011;21556;55.782;37.528;2024-03-02T04:43:41;49.75;;;30.80;;
35434;SDS011;21556;55.782;37.528;2024-03-02T04:46:07;52.38;;;30.58;;
35434;SDS011;21556;55.782;37.528;2024-03-02T04:48:33;56.30;;;32.97;;
35434;SDS011;21556;55.782;37.528;2024-03-02T04:51:00;44.90;;;29.45;;
35434;SDS011;21556;55.782;37.528;2024-03-02T04:53:26;52.10;;;31.65;;
35434;SDS011;21556;55.782;37.528;2024-03-02T04:55:52;46.67;;;30.80;;
35434;SDS011;21556;55.782;37.528;2024-03-02T04:58:44;51.60;;;31.17;;
35434;SDS011;21556;55.782;37.528;2024-03-02T05:01:10;49.42;;;31.60;;
35434;SDS011;21556;55.782;37.528;2024-03-02T05:03:38;54.92;;;34.78;;
35434;SDS011;21556;55.782;37.528;2024-03-02T05:08:36;54.60;;;32.55;;
35434;SDS011;21556;55.782;37.528;2024-03-02T05:11:02;51.03;;;32.35;;
35434;SDS011;21556;55.782;37.528;2024-03-02T05:13:47;52.53;;;34.33;;
35434;SDS011;21556;55.782;37.528;2024-03-02T05:16:13;55.17;;;34.88;;
35434;SDS011;21556;55.782;37.528;2024-03-02T05:18:39;54.95;;;35.50;;
35434;SDS011;21556;55.782;37.528;2024-03-02T05:21:05;52.75;;;35.38;;
35434;SDS011;21556;55.782;37.528;2024-03-02T05:23:31;63.38;;;38.72;;
35434;SDS011;21556;55.782;37.528;2024-03-02T05:25:57;57.42;;;37.05;;
35434;SDS011;21556;55.782;37.528;2024-03-02T05:28:23;60.58;;;38.55;;
35434;SDS011;21556;55.782;37.528;2024-03-02T05:30:49;64.63;;;41.25;;
35434;SDS011;21556;55.782;37.528;2024-03-02T05:33:16;73.50;;;42.83;;
35434;SDS011;21556;55.782;37.528;2024-03-02T05:35:43;70.93;;;43.95;;
35434;SDS011;21556;55.782;37.528;2024-03-02T05:38:09;59.75;;;38.22;;
35434;SDS011;21556;55.782;37.528;2024-03-02T05:40:35;81.90;;;50.97;;
35434;SDS011;21556;55.782;37.528;2024-03-02T05:43:02;84.43;;;53.78;;
35434;SDS011;21556;55.782;37.528;2024-03-02T05:45:29;79.05;;;53.13;;
35434;SDS011;21556;55.782;37.528;2024-03-02T05:47:55;84.53;;;54.53;;
35434;SDS011;21556;55.782;37.528;2024-03-02T05:50:26;80.60;;;54.83;;
35434;SDS011;21556;55.782;37.528;2024-03-02T05:52:55;81.57;;;54.33;;
35434;SDS011;21556;55.782;37.528;2024-03-02T05:55:21;77.78;;;53.15;;
35434;SDS011;21556;55.782;37.528;2024-03-02T05:57:48;81.25;;;55.95;;
35434;SDS011;21556;55.782;37.528;2024-03-02T06:00:34;83.50;;;55.60;;
35434;SDS011;21556;55.782;37.528;2024-03-02T06:03:01;81.88;;;56.15;;
35434;SDS011;21556;55.782;37.528;2024-03-02T06:05:27;85.55;;;55.88;;
35434;SDS011;21556;55.782;37.528;2024-03-02T06:07:53;89.32;;;60.83;;
35434;SDS011;21556;55.782;37.528;2024-03-02T06:10:19;94.22;;;62.13;;
35434;SDS011;21556;55.782;37.528;2024-03-02T06:12:46;88.70;;;58.13;;
35434;SDS011;21556;55.782;37.528;2024-03-02T06:15:12;89.97;;;57.65;;
35434;SDS011;21556;55.782;37.528;2024-03-02T06:17:38;83.00;;;55.13;;
35434;SDS011;21556;55.782;37.528;2024-03-02T06:20:04;84.07;;;56.92;;
35434;SDS011;21556;55.782;37.528;2024-03-02T06:22:33;87.65;;;55.65;;
35434;SDS011;21556;55.782;37.528;2024-03-02T06:25:00;83.78;;;56.03;;
35434;SDS011;21556;55.782;37.528;2024-03-02T06:27:26;87.28;;;54.63;;
35434;SDS011;21556;55.782;37.528;2024-03-02T06:29:52;85.80;;;53.55;;
35434;SDS011;21556;55.782;37.528;2024-03-02T06:32:18;82.82;;;54.85;;
35434;SDS011;21556;55.782;37.528;2024-03-02T06:34:45;77.18;;;50.25;;
35434;SDS011;21556;55.782;37.528;2024-03-02T06:37:11;82.45;;;52.30;;
35434;SDS011;21556;55.782;37.528;2024-03-02T06:39:37;90.13;;;56.22;;
35434;SDS011;21556;55.782;37.528;2024-03-02T06:42:03;76.50;;;51.63;;
35434;SDS011;21556;55.782;37.528;2024-03-02T06:44:29;80.82;;;52.60;;
35434;SDS011;21556;55.782;37.528;2024-03-02T06:46:55;82.05;;;51.58;;
35434;SDS011;21556;55.782;37.528;2024-03-02T06:49:21;76.70;;;50.22;;
35434;SDS011;21556;55.782;37.528;2024-03-02T06:51:48;77.03;;;51.47;;
35434;SDS011;21556;55.782;37.528;2024-03-02T06:54:21;82.32;;;49.40;;
35434;SDS011;21556;55.782;37.528;2024-03-02T06:56:47;72.72;;;48.47;;
35434;SDS011;21556;55.782;37.528;2024-03-02T06:59:14;86.68;;;50.85;;
35434;SDS011;21556;55.782;37.528;2024-03-02T07:01:40;83.10;;;47.97;;
35434;SDS011;21556;55.782;37.528;2024-03-02T07:04:09;73.22;;;48.13;;
35434;SDS011;21556;55.782;37.528;2024-03-02T07:06:35;77.78;;;49.38;;
35434;SDS011;21556;55.782;37.528;2024-03-02T07:09:01;83.82;;;49.05;;
35434;SDS011;21556;55.782;37.528;2024-03-02T07:11:27;75.63;;;48.40;;
35434;SDS011;21556;55.782;37.528;2024-03-02T07:13:56;73.38;;;48.28;;
35434;SDS011;21556;55.782;37.528;2024-03-02T07:16:22;69.53;;;45.17;;
35434;SDS011;21556;55.782;37.528;2024-03-02T07:18:54;81.75;;;47.90;;
35434;SDS011;21556;55.782;37.528;2024-03-02T07:23:48;74.97;;;43.25;;
35434;SDS011;21556;55.782;37.528;2024-03-02T07:26:14;71.53;;;42.85;;
35434;SDS011;21556;55.782;37.528;2024-03-02T07:28:41;73.45;;;42.97;;
35434;SDS011;21556;55.782;37.528;2024-03-02T07:31:09;64.55;;;43.42;;
35434;SDS011;21556;55.782;37.528;2024-03-02T07:33:35;67.10;;;41.75;;
35434;SDS011;21556;55.782;37.528;2024-03-02T07:36:01;72.78;;;45.83;;
35434;SDS011;21556;55.782;37.528;2024-03-02T07:38:28;72.68;;;43.20;;
35434;SDS011;21556;55.782;37.528;2024-03-02T07:40:55;65.57;;;41.83;;
35434;SDS011;21556;55.782;37.528;2024-03-02T07:43:21;67.63;;;43.45;;
35434;SDS011;21556;55.782;37.528;2024-03-02T07:45:47;66.05;;;40.67;;
35434;SDS011;21556;55.782;37.528;2024-03-02T07:48:14;66.32;;;41.40;;
35434;SDS011;21556;55.782;37.528;2024-03-02T07:50:41;61.95;;;40.83;;
35434;SDS011;21556;55.782;37.528;2024-03-02T07:53:08;56.08;;;39.42;;
35434;SDS011;21556;55.782;37.528;2024-03-02T07:55:34;65.10;;;40.03;;
35434;SDS011;21556;55.782;37.528;2024-03-02T07:58:27;67.07;;;39.33;;
35434;SDS011;21556;55.782;37.528;2024-03-02T08:01:11;52.92;;;37.17;;
35434;SDS011;21556;55.782;37.528;2024-03-02T08:03:37;62.80;;;38.30;;
35434;SDS011;21556;55.782;37.528;2024-03-02T08:06:03;56.53;;;36.20;;
35434;SDS011;21556;55.782;37.528;2024-03-02T08:08:29;63.83;;;37.55;;
35434;SDS011;21556;55.782;37.528;2024-03-02T08:10:55;61.67;;;37.38;;
35434;SDS011;21556;55.782;37.528;2024-03-02T08:13:25;62.45;;;37.70;;
35434;SDS011;21556;55.782;37.528;2024-03-02T08:15:51;65.38;;;39.55;;
35434;SDS011;21556;55.782;37.528;2024-03-02T08:18:17;57.45;;;37.45;;
35434;SDS011;21556;55.782;37.528;2024-03-02T08:20:43;55.72;;;37.45;;
35434;SDS011;21556;55.782;37.528;2024-03-02T08:23:10;57.58;;;38.28;;
35434;SDS011;21556;55.782;37.528;2024-03-02T08:28:21;57.97;;;35.80;;
35434;SDS011;21556;55.782;37.528;2024-03-02T08:30:48;54.55;;;33.72;;
35434;SDS011;21556;55.782;37.528;2024-03-02T08:33:14;61.60;;;37.50;;
35434;SDS011;21556;55.782;37.528;2024-03-02T08:36:00;58.70;;;34.85;;
35434;SDS011;21556;55.782;37.528;2024-03-02T08:38:26;60.58;;;35.95;;
35434;SDS011;21556;55.782;37.528;2024-03-02T08:40:53;52.53;;;34.70;;
35434;SDS011;21556;55.782;37.528;2024-03-02T08:43:21;59.00;;;34.22;;
35434;SDS011;21556;55.782;37.528;2024-03-02T08:45:48;49.70;;;33.60;;
35434;SDS011;21556;55.782;37.528;2024-03-02T08:48:14;51.10;;;33.53;;
35434;SDS011;21556;55.782;37.528;2024-03-02T08:50:43;51.60;;;32.42;;
35434;SDS011;21556;55.782;37.528;2024-03-02T08:53:09;53.63;;;34.05;;
35434;SDS011;21556;55.782;37.528;2024-03-02T08:55:36;55.45;;;34.88;;
35434;SDS011;21556;55.782;37.528;2024-03-02T08:58:02;51.15;;;33.13;;
35434;SDS011;21556;55.782;37.528;2024-03-02T09:00:28;52.20;;;33.97;;
35434;SDS011;21556;55.782;37.528;2024-03-02T09:05:40;59.17;;;35.47;;
35434;SDS011;21556;55.782;37.528;2024-03-02T09:08:06;51.97;;;36.55;;
35434;SDS011;21556;55.782;37.528;2024-03-02T09:10:32;51.78;;;35.72;;
35434;SDS011;21556;55.782;37.528;2024-03-02T09:12:58;58.75;;;35.97;;
35434;SDS011;21556;55.782;37.528;2024-03-02T09:15:25;52.97;;;34.20;;
35434;SDS011;21556;55.782;37.528;2024-03-02T09:17:51;56.70;;;36.33;;
35434;SDS011;21556;55.782;37.528;2024-03-02T09:20:17;57.00;;;38.05;;
35434;SDS011;21556;55.782;37.528;2024-03-02T09:22:48;57.30;;;37.75;;
35434;SDS011;21556;55.782;37.528;2024-03-02T09:25:14;60.22;;;38.00;;
35434;SDS011;21556;55.782;37.528;2024-03-02T09:27:41;59.83;;;38.72;;
35434;SDS011;21556;55.782;37.528;2024-03-02T09:30:08;63.22;;;39.67;;
35434;SDS011;21556;55.782;37.528;2024-03-02T09:32:36;57.88;;;33.78;;
35434;SDS011;21556;55.782;37.528;2024-03-02T09:35:04;64.18;;;40.72;;
35434;SDS011;21556;55.782;37.528;2024-03-02T09:37:31;62.58;;;39.95;;
35434;SDS011;21556;55.782;37.528;2024-03-02T09:39:57;61.75;;;39.92;;
35434;SDS011;21556;55.782;37.528;2024-03-02T09:42:23;61.60;;;38.15;;
35434;SDS011;21556;55.782;37.528;2024-03-02T09:44:50;66.63;;;39.72;;
35434;SDS011;21556;55.782;37.528;2024-03-02T09:47:17;65.53;;;38.65;;
35434;SDS011;21556;55.782;37.528;2024-03-02T09:49:43;60.50;;;38.13;;
35434;SDS011;21556;55.782;37.528;2024-03-02T09:52:12;66.88;;;38.90;;
35434;SDS011;21556;55.782;37.528;2024-03-02T09:54:40;65.80;;;39.95;;
35434;SDS011;21556;55.782;37.528;2024-03-02T09:57:09;62.95;;;39.65;;
35434;SDS011;21556;55.782;37.528;2024-03-02T09:59:35;58.58;;;39.33;;
35434;SDS011;21556;55.782;37.528;2024-03-02T10:02:02;63.33;;;38.85;;
35434;SDS011;21556;55.782;37.528;2024-03-02T10:04:29;62.90;;;38.83;;
35434;SDS011;21556;55.782;37.528;2024-03-02T10:07:09;55.58;;;32.60;;
35434;SDS011;21556;55.782;37.528;2024-03-02T10:09:39;43.83;;;30.42;;
35434;SDS011;21556;55.782;37.528;2024-03-02T10:12:07;49.17;;;29.00;;
35434;SDS011;21556;55.782;37.528;2024-03-02T10:14:34;46.72;;;29.48;;
35434;SDS011;21556;55.782;37.528;2024-03-02T10:17:07;45.78;;;28.17;;
35434;SDS011;21556;55.782;37.528;2024-03-02T10:19:36;47.30;;;28.75;;
35434;SDS011;21556;55.782;37.528;2024-03-02T10:22:05;47.13;;;27.77;;
35434;SDS011;21556;55.782;37.528;2024-03-02T10:27:09;41.60;;;24.98;;
35434;SDS011;21556;55.782;37.528;2024-03-02T10:29:45;45.60;;;24.95;;
35434;SDS011;21556;55.782;37.528;2024-03-02T10:32:12;40.05;;;24.20;;
35434;SDS011;21556;55.782;37.528;2024-03-02T10:34:42;45.05;;;26.08;;
35434;SDS011;21556;55.782;37.528;2024-03-02T10:37:10;45.60;;;27.95;;
35434;SDS011;21556;55.782;37.528;2024-03-02T10:39:37;46.65;;;27.15;;
35434;SDS011;21556;55.782;37.528;2024-03-02T10:42:10;43.65;;;27.65;;
35434;SDS011;21556;55.782;37.528;2024-03-02T10:44:40;41.85;;;26.42;;
35434;SDS011;21556;55.782;37.528;2024-03-02T10:47:08;44.53;;;28.75;;
35434;SDS011;21556;55.782;37.528;2024-03-02T10:49:34;42.03;;;26.70;;
35434;SDS011;21556;55.782;37.528;2024-03-02T10:52:07;49.47;;;28.50;;
35434;SDS011;21556;55.782;37.528;2024-03-02T10:54:35;46.70;;;28.75;;
35434;SDS011;21556;55.782;37.528;2024-03-02T10:57:05;51.67;;;30.00;;
35434;SDS011;21556;55.782;37.528;2024-03-02T10:59:35;45.20;;;29.23;;
35434;SDS011;21556;55.782;37.528;2024-03-02T11:02:05;44.90;;;30.05;;
35434;SDS011;21556;55.782;37.528;2024-03-02T11:04:36;45.47;;;29.20;;
35434;SDS011;21556;55.782;37.528;2024-03-02T11:07:08;47.42;;;29.38;;
35434;SDS011;21556;55.782;37.528;2024-03-02T11:09:47;49.35;;;30.90;;
35434;SDS011;21556;55.782;37.528;2024-03-02T11:12:23;46.85;;;29.20;;
35434;SDS011;21556;55.782;37.528;2024-03-02T11:14:54;48.78;;;31.73;;
35434;SDS011;21556;55.782;37.528;2024-03-02T11:17:21;51.07;;;31.93;;
35434;SDS011;21556;55.782;37.528;2024-03-02T11:19:58;47.25;;;29.33;;
35434;SDS011;21556;55.782;37.528;2024-03-02T11:22:24;52.33;;;32.53;;
35434;SDS011;21556;55.782;37.528;2024-03-02T11:24:52;47.08;;;29.50;;
35434;SDS011;21556;55.782;37.528;2024-03-02T11:33:00;51.10;;;29.65;;
35434;SDS011;21556;55.782;37.528;2024-03-02T11:35:31;56.78;;;29.88;;
35434;SDS011;21556;55.782;37.528;2024-03-02T11:37:57;47.20;;;30.30;;
35434;SDS011;21556;55.782;37.528;2024-03-02T11:40:26;49.45;;;30.27;;
35434;SDS011;21556;55.782;37.528;2024-03-02T11:42:52;59.40;;;30.92;;
35434;SDS011;21556;55.782;37.528;2024-03-02T11:45:22;47.85;;;30.92;;
35434;SDS011;21556;55.782;37.528;2024-03-02T11:47:50;43.10;;;29.27;;
35434;SDS011;21556;55.782;37.528;2024-03-02T11:53:06;45.42;;;27.65;;
35434;SDS011;21556;55.782;37.528;2024-03-02T11:55:38;45.47;;;29.55;;
35434;SDS011;21556;55.782;37.528;2024-03-02T11:58:14;49.85;;;29.08;;
35434;SDS011;21556;55.782;37.528;2024-03-02T12:00:46;47.95;;;28.50;;
35434;SDS011;21556;55.782;37.528;2024-03-02T12:03:13;49.60;;;28.80;;
35434;SDS011;21556;55.782;37.528;2024-03-02T12:05:40;33.05;;;22.40;;
35434;SDS011;21556;55.782;37.528;2024-03-02T12:08:07;46.95;;;29.33;;
35434;SDS011;21556;55.782;37.528;2024-03-02T12:10:34;48.88;;;29.20;;
35434;SDS011;21556;55.782;37.528;2024-03-02T12:13:06;52.47;;;30.30;;
35434;SDS011;21556;55.782;37.528;2024-03-02T12:15:33;44.33;;;26.83;;
35434;SDS011;21556;55.782;37.528;2024-03-02T12:18:02;41.40;;;26.50;;
35434;SDS011;21556;55.782;37.528;2024-03-02T12:20:30;39.58;;;26.40;;
35434;SDS011;21556;55.782;37.528;2024-03-02T12:23:01;44.40;;;28.03;;
35434;SDS011;21556;55.782;37.528;2024-03-02T12:25:29;49.47;;;28.52;;
35434;SDS011;21556;55.782;37.528;2024-03-02T12:27:57;46.60;;;29.42;;
35434;SDS011;21556;55.782;37.528;2024-03-02T12:30:32;46.13;;;28.50;;
35434;SDS011;21556;55.782;37.528;2024-03-02T12:33:03;47.28;;;30.30;;
35434;SDS011;21556;55.782;37.528;2024-03-02T12:35:30;42.05;;;28.23;;
35434;SDS011;21556;55.782;37.528;2024-03-02T12:37:57;50.33;;;28.15;;
35434;SDS011;21556;55.782;37.528;2024-03-02T12:40:24;46.33;;;29.63;;
35434;SDS011;21556;55.782;37.528;2024-03-02T12:42:50;42.75;;;27.63;;
35434;SDS011;21556;55.782;37.528;2024-03-02T12:45:16;45.50;;;27.85;;
35434;SDS011;21556;55.782;37.528;2024-03-02T12:47:49;40.05;;;27.15;;
35434;SDS011;21556;55.782;37.528;2024-03-02T12:50:17;45.33;;;27.52;;
35434;SDS011;21556;55.782;37.528;2024-03-02T12:52:43;39.97;;;27.17;;
35434;SDS011;21556;55.782;37.528;2024-03-02T12:55:09;43.72;;;28.30;;
35434;SDS011;21556;55.782;37.528;2024-03-02T12:57:36;46.35;;;29.15;;
35434;SDS011;21556;55.782;37.528;2024-03-02T13:00:03;46.03;;;29.98;;
35434;SDS011;21556;55.782;37.528;2024-03-02T13:02:38;45.95;;;27.80;;
35434;SDS011;21556;55.782;37.528;2024-03-02T13:05:05;40.65;;;26.65;;
35434;SDS011;21556;55.782;37.528;2024-03-02T13:07:37;46.30;;;28.30;;
35434;SDS011;21556;55.782;37.528;2024-03-02T13:10:04;44.33;;;27.92;;
35434;SDS011;21556;55.782;37.528;2024-03-02T13:12:43;49.08;;;28.10;;
35434;SDS011;21556;55.782;37.528;2024-03-02T13:15:09;42.70;;;28.10;;
35434;SDS011;21556;55.782;37.528;2024-03-02T13:17:39;46.83;;;28.30;;
35434;SDS011;21556;55.782;37.528;2024-03-02T13:20:05;40.92;;;27.13;;
35434;SDS011;21556;55.782;37.528;2024-03-02T13:22:36;40.42;;;24.52;;
35434;SDS011;21556;55.782;37.528;2024-03-02T13:25:08;46.35;;;26.30;;
35434;SDS011;21556;55.782;37.528;2024-03-02T13:27:38;28.63;;;19.30;;
35434;SDS011;21556;55.782;37.528;2024-03-02T13:30:05;39.60;;;24.83;;
35434;SDS011;21556;55.782;37.528;2024-03-02T13:32:31;42.90;;;26.55;;
35434;SDS011;21556;55.782;37.528;2024-03-02T13:34:58;36.58;;;24.75;;
35434;SDS011;21556;55.782;37.528;2024-03-02T13:37:24;36.80;;;25.23;;
35434;SDS011;21556;55.782;37.528;2024-03-02T13:39:53;43.10;;;25.75;;
35434;SDS011;21556;55.782;37.528;2024-03-02T13:42:24;37.30;;;23.55;;
35434;SDS011;21556;55.782;37.528;2024-03-02T13:44:50;39.40;;;22.90;;
35434;SDS011;21556;55.782;37.528;2024-03-02T13:47:24;36.95;;;23.38;;
35434;SDS011;21556;55.782;37.528;2024-03-02T13:49:56;38.25;;;22.55;;
35434;SDS011;21556;55.782;37.528;2024-03-02T13:52:25;34.53;;;22.75;;
35434;SDS011;21556;55.782;37.528;2024-03-02T13:54:52;32.35;;;21.90;;
35434;SDS011;21556;55.782;37.528;2024-03-02T13:57:21;38.25;;;22.60;;
35434;SDS011;21556;55.782;37.528;2024-03-02T13:59:55;33.85;;;22.95;;
35434;SDS011;21556;55.782;37.528;2024-03-02T14:02:23;38.40;;;22.73;;
35434;SDS011;21556;55.782;37.528;2024-03-02T14:04:49;31.92;;;22.65;;
35434;SDS011;21556;55.782;37.528;2024-03-02T14:10:35;37.08;;;21.92;;
35434;SDS011;21556;55.782;37.528;2024-03-02T14:13:10;34.28;;;22.70;;
35434;SDS011;21556;55.782;37.528;2024-03-02T14:15:37;38.50;;;22.35;;
35434;SDS011;21556;55.782;37.528;2024-03-02T14:18:06;37.70;;;22.88;;
35434;SDS011;21556;55.782;37.528;2024-03-02T14:20:35;37.17;;;22.65;;
35434;SDS011;21556;55.782;37.528;2024-03-02T14:23:03;35.90;;;21.33;;
35434;SDS011;21556;55.782;37.528;2024-03-02T14:25:30;32.08;;;21.33;;
35434;SDS011;21556;55.782;37.528;2024-03-02T14:28:31;33.30;;;20.35;;
35434;SDS011;21556;55.782;37.528;2024-03-02T14:31:20;39.58;;;21.70;;
35434;SDS011;21556;55.782;37.528;2024-03-02T14:34:08;34.92;;;19.60;;
35434;SDS011;21556;55.782;37.528;2024-03-02T14:37:13;32.40;;;21.48;;
35434;SDS011;21556;55.782;37.528;2024-03-02T14:43:53;34.35;;;21.42;;
35434;SDS011;21556;55.782;37.528;2024-03-02T14:46:19;34.67;;;21.73;;
35434;SDS011;21556;55.782;37.528;2024-03-02T14:48:45;36.92;;;21.80;;
35434;SDS011;21556;55.782;37.528;2024-03-02T14:51:12;34.28;;;21.33;;
35434;SDS011;21556;55.782;37.528;2024-03-02T14:53:44;35.47;;;22.67;;